Time,TemperatureF,DewpointF,PressureIn,WindDirection,WindDirectionDegrees,WindSpeedMPH,WindSpeedGustMPH,Humidity,HourlyPrecipIn,Conditions,Clouds,dailyrainin,SoftwareType,DateUTC
2013-03-15 00:00:00,69.1,32.0,30.84,SSE,166,4.0,4.0,10,0.00,RA,OVC,0.00,Misterhouse,2013-03-15 07:00:00,
2013-03-15 00:05:00,68.9,32.0,30.84,SSE,166,0.0,0.0,10,0.00,RA,OVC,0.00,Misterhouse,2013-03-15 07:05:00,
2013-03-15 00:10:00,68.0,32.0,30.84,SSE,166,0.0,0.0,10,0.00,RA,OVC,0.00,Misterhouse,2013-03-15 07:10:00,
2013-03-15 00:15:00,67.8,32.0,30.84,SSE,166,0.0,0.0,10,0.00,RA,OVC,0.00,Misterhouse,2013-03-15 07:15:00,
2013-03-15 00:20:00,67.6,32.0,30.84,SSE,166,0.0,0.0,10,0.00,RA,OVC,0.00,Misterhouse,2013-03-15 07:20:00,
2013-03-15 00:25:00,66.9,32.0,30.84,SSE,166,0.0,0.0,10,0.00,RA,OVC,0.00,Misterhouse,2013-03-15 07:25:00,
2013-03-15 00:30:00,66.6,32.0,30.84,SSE,166,0.0,0.0,10,0.00,RA,OVC,0.00,Misterhouse,2013-03-15 07:30:00,
2013-03-15 00:35:00,67.1,32.0,30.84,SSE,164,3.0,3.0,10,0.00,RA,OVC,0.00,Misterhouse,2013-03-15 07:35:00,
2013-03-15 00:40:00,67.8,32.0,30.81,South,169,4.0,4.0,10,0.00,RA,OVC,0.00,Misterhouse,2013-03-15 07:40:00,
2013-03-15 00:45:00,68.5,32.0,30.81,SSE,152,5.0,5.0,10,0.00,RA,OVC,0.00,Misterhouse,2013-03-15 07:45:00,
2013-03-15 00:50:00,69.1,32.0,30.81,SSE,153,5.0,5.0,10,0.00,RA,OVC,0.00,Misterhouse,2013-03-15 07:50:00,
2013-03-15 00:55:00,69.3,32.0,30.81,SSE,166,5.0,5.0,10,0.00,RA,OVC,0.00,Misterhouse,2013-03-15 07:55:00,
2013-03-15 01:05:00,69.1,32.0,30.81,South,174,5.0,6.0,10,0.00,RA,OVC,0.00,Misterhouse,2013-03-15 08:05:00,
2013-03-15 01:10:00,68.9,32.0,30.81,SSE,165,5.0,5.0,10,0.00,RA,OVC,0.00,Misterhouse,2013-03-15 08:10:00,
2013-03-15 01:15:00,68.9,32.0,30.81,South,170,6.0,6.0,10,0.00,RA,OVC,0.00,Misterhouse,2013-03-15 08:15:00,
2013-03-15 01:20:00,68.7,32.0,30.81,South,169,5.0,5.0,10,0.00,RA,OVC,0.00,Misterhouse,2013-03-15 08:20:00,
2013-03-15 01:30:00,68.4,32.0,30.81,SSE,167,5.0,5.0,10,0.00,RA,OVC,0.00,Misterhouse,2013-03-15 08:30:00,
2013-03-15 01:35:00,68.4,32.0,30.81,SSE,154,6.0,6.0,10,0.00,RA,OVC,0.00,Misterhouse,2013-03-15 08:35:00,
2013-03-15 01:40:00,68.5,32.0,30.81,SSE,168,7.0,7.0,10,0.00,RA,OVC,0.00,Misterhouse,2013-03-15 08:40:00,
2013-03-15 01:45:00,68.7,32.0,30.81,SSE,151,8.0,8.0,10,0.00,RA,OVC,0.00,Misterhouse,2013-03-15 08:45:00,
2013-03-15 01:50:00,68.5,32.0,30.81,SSE,159,6.0,6.0,10,0.00,RA,OVC,0.00,Misterhouse,2013-03-15 08:50:00,
2013-03-15 01:55:00,68.0,32.0,30.81,SSE,166,7.0,7.0,10,0.00,RA,OVC,0.00,Misterhouse,2013-03-15 08:55:00,
2013-03-15 02:00:00,67.5,32.0,30.81,SSE,163,5.0,6.0,10,0.00,RA,OVC,0.00,Misterhouse,2013-03-15 09:00:00,
2013-03-15 02:10:00,67.3,32.0,30.81,SSE,168,6.0,6.0,10,0.00,RA,OVC,0.00,Misterhouse,2013-03-15 09:10:00,
2013-03-15 02:15:00,67.1,32.0,30.81,South,179,5.0,6.0,10,0.00,RA,OVC,0.00,Misterhouse,2013-03-15 09:15:00,
2013-03-15 02:20:00,66.9,32.0,30.81,South,187,7.0,7.0,10,0.00,RA,OVC,0.00,Misterhouse,2013-03-15 09:20:00,
2013-03-15 02:25:00,66.9,32.0,30.81,South,172,5.0,5.0,10,0.00,RA,OVC,0.00,Misterhouse,2013-03-15 09:25:00,
2013-03-15 02:30:00,67.1,32.0,30.81,South,177,4.0,6.0,10,0.00,RA,OVC,0.00,Misterhouse,2013-03-15 09:30:00,
2013-03-15 02:35:00,67.1,32.0,30.81,SSW,199,4.0,5.0,10,0.00,RA,OVC,0.00,Misterhouse,2013-03-15 09:35:00,
2013-03-15 02:40:00,67.3,32.0,30.81,South,189,4.0,4.0,10,0.00,RA,OVC,0.00,Misterhouse,2013-03-15 09:40:00,
2013-03-15 02:50:00,67.3,32.0,30.81,SSW,205,3.0,6.0,10,0.00,RA,OVC,0.00,Misterhouse,2013-03-15 09:50:00,
2013-03-15 02:55:00,67.5,32.0,30.81,SW,214,3.0,3.0,10,0.00,RA,OVC,0.00,Misterhouse,2013-03-15 09:55:00,
2013-03-15 03:00:00,67.3,32.0,30.81,SSW,213,4.0,4.0,10,0.00,RA,OVC,0.00,Misterhouse,2013-03-15 10:00:00,
2013-03-15 03:05:00,67.1,32.0,30.81,WSW,254,2.0,0.0,10,0.00,RA,OVC,0.00,Misterhouse,2013-03-15 10:05:00,
2013-03-15 03:15:00,65.7,32.0,30.78,SW,232,0.0,0.0,10,0.00,RA,OVC,0.00,Misterhouse,2013-03-15 10:15:00,
2013-03-15 03:20:00,65.5,32.0,30.78,SSE,165,0.0,0.0,10,0.00,RA,OVC,0.00,Misterhouse,2013-03-15 10:20:00,
2013-03-15 03:25:00,65.7,32.0,30.78,SSW,202,0.0,0.0,10,0.00,RA,OVC,0.00,Misterhouse,2013-03-15 10:25:00,
2013-03-15 03:30:00,65.7,32.0,30.78,South,183,4.0,5.0,10,0.00,RA,OVC,0.00,Misterhouse,2013-03-15 10:30:00,
2013-03-15 03:35:00,65.8,32.0,30.78,SSE,152,0.0,0.0,10,0.00,RA,OVC,0.00,Misterhouse,2013-03-15 10:35:00,
2013-03-15 03:40:00,65.5,32.0,30.78,SW,218,4.0,10.0,10,0.00,RA,OVC,0.00,Misterhouse,2013-03-15 10:40:00,
2013-03-15 03:45:00,65.8,32.0,30.78,WNW,300,0.0,0.0,10,0.00,RA,OVC,0.00,Misterhouse,2013-03-15 10:45:00,
2013-03-15 03:50:00,65.1,32.0,30.78,NW,314,4.0,0.0,10,0.00,RA,OVC,0.00,Misterhouse,2013-03-15 10:50:00,
2013-03-15 03:55:00,64.4,32.0,30.78,WSW,252,0.0,0.0,10,0.00,RA,OVC,0.00,Misterhouse,2013-03-15 10:55:00,
2013-03-15 04:00:00,63.9,32.0,30.78,WSW,252,0.0,0.0,11,0.00,RA,OVC,0.00,Misterhouse,2013-03-15 11:00:00,
2013-03-15 04:05:00,63.5,32.0,30.78,WNW,302,0.0,0.0,11,0.00,RA,OVC,0.00,Misterhouse,2013-03-15 11:05:00,
2013-03-15 04:10:00,63.0,32.0,30.78,WNW,302,0.0,0.0,11,0.00,RA,OVC,0.00,Misterhouse,2013-03-15 11:10:00,
2013-03-15 04:15:00,62.8,32.0,30.78,WNW,300,0.0,0.0,11,0.00,RA,OVC,0.00,Misterhouse,2013-03-15 11:15:00,
2013-03-15 04:20:00,63.1,32.0,30.78,WNW,299,0.0,0.0,11,0.00,RA,OVC,0.00,Misterhouse,2013-03-15 11:20:00,
2013-03-15 04:25:00,63.7,32.0,30.78,WNW,301,0.0,0.0,11,0.00,RA,OVC,0.00,Misterhouse,2013-03-15 11:25:00,
2013-03-15 04:30:00,63.7,32.0,30.78,WNW,300,0.0,0.0,11,0.00,RA,OVC,0.00,Misterhouse,2013-03-15 11:30:00,
2013-03-15 04:40:00,63.3,32.0,30.78,WNW,296,0.0,0.0,11,0.00,RA,OVC,0.00,Misterhouse,2013-03-15 11:40:00,
2013-03-15 04:45:00,63.0,32.0,30.78,WNW,296,0.0,0.0,11,0.00,RA,OVC,0.00,Misterhouse,2013-03-15 11:45:00,
2013-03-15 04:55:00,63.7,32.0,30.78,WNW,296,0.0,0.0,11,0.00,RA,OVC,0.00,Misterhouse,2013-03-15 11:55:00,
2013-03-15 05:00:00,64.6,32.0,30.78,SSW,200,3.0,4.0,10,0.00,RA,OVC,0.00,Misterhouse,2013-03-15 12:00:00,
2013-03-15 05:10:00,65.5,32.0,30.78,SSW,200,5.0,5.0,10,0.00,RA,OVC,0.00,Misterhouse,2013-03-15 12:10:00,
2013-03-15 05:15:00,65.5,32.0,30.78,SSW,207,0.0,3.0,10,0.00,RA,OVC,0.00,Misterhouse,2013-03-15 12:15:00,
2013-03-15 05:20:00,65.5,32.0,30.78,SW,214,3.0,4.0,10,0.00,RA,OVC,0.00,Misterhouse,2013-03-15 12:20:00,
2013-03-15 05:25:00,65.7,32.0,30.78,SSE,148,4.0,4.0,10,0.00,RA,OVC,0.00,Misterhouse,2013-03-15 12:25:00,
2013-03-15 05:30:00,65.8,32.0,30.78,SSW,210,3.0,4.0,10,0.00,RA,OVC,0.00,Misterhouse,2013-03-15 12:30:00,
2013-03-15 05:40:00,64.6,32.0,30.78,East,101,2.0,0.0,10,0.00,RA,OVC,0.00,Misterhouse,2013-03-15 12:40:00,
2013-03-15 05:45:00,64.6,32.0,30.78,SSW,192,0.0,0.0,10,0.00,RA,OVC,0.00,Misterhouse,2013-03-15 12:45:00,
2013-03-15 05:55:00,64.4,32.0,30.78,SW,216,0.0,4.0,10,0.00,RA,OVC,0.00,Misterhouse,2013-03-15 12:55:00,
2013-03-15 06:00:00,65.1,32.0,30.78,SSW,193,3.0,3.0,10,0.00,RA,OVC,0.00,Misterhouse,2013-03-15 13:00:00,
2013-03-15 06:10:00,63.7,32.0,30.78,SSW,193,0.0,0.0,11,0.00,RA,OVC,0.00,Misterhouse,2013-03-15 13:10:00,
2013-03-15 06:15:00,63.3,32.0,30.78,SSW,193,0.0,0.0,11,0.00,RA,OVC,0.00,Misterhouse,2013-03-15 13:15:00,
2013-03-15 06:25:00,63.9,32.0,30.78,South,175,3.0,3.0,11,0.00,RA,OVC,0.00,Misterhouse,2013-03-15 13:25:00,
2013-03-15 06:30:00,64.0,32.0,30.78,South,178,0.0,0.0,11,0.00,RA,OVC,0.00,Misterhouse,2013-03-15 13:30:00,
2013-03-15 06:40:00,65.3,32.0,30.78,South,170,0.0,0.0,10,0.00,RA,OVC,0.00,Misterhouse,2013-03-15 13:40:00,
2013-03-15 06:45:00,65.5,32.0,30.78,SSW,194,4.0,4.0,10,0.00,RA,OVC,0.00,Misterhouse,2013-03-15 13:45:00,
2013-03-15 06:55:00,64.8,32.0,30.78,SSW,199,0.0,0.0,10,0.00,RA,OVC,0.00,Misterhouse,2013-03-15 13:55:00,
2013-03-15 07:00:00,64.0,32.0,30.78,SW,214,0.0,0.0,11,0.00,RA,OVC,0.00,Misterhouse,2013-03-15 14:00:00,
2013-03-15 07:10:00,65.1,32.0,30.78,SSW,194,3.0,3.0,10,0.00,RA,OVC,0.00,Misterhouse,2013-03-15 14:10:00,
2013-03-15 07:15:00,65.5,32.0,30.78,SSW,199,2.0,0.0,10,0.00,RA,OVC,0.00,Misterhouse,2013-03-15 14:15:00,
2013-03-15 07:20:00,64.9,32.0,30.78,WNW,298,3.0,0.0,10,0.00,RA,OVC,0.00,Misterhouse,2013-03-15 14:20:00,
2013-03-15 07:25:00,64.2,32.0,30.78,WNW,298,0.0,0.0,11,0.00,RA,OVC,0.00,Misterhouse,2013-03-15 14:25:00,
2013-03-15 07:30:00,63.5,32.0,30.78,WNW,298,0.0,0.0,11,0.00,RA,OVC,0.00,Misterhouse,2013-03-15 14:30:00,
2013-03-15 07:35:00,63.3,32.0,30.78,WNW,298,0.0,0.0,11,0.00,RA,OVC,0.00,Misterhouse,2013-03-15 14:35:00,
2013-03-15 07:40:00,63.3,32.0,30.78,SW,235,0.0,4.0,11,0.00,RA,OVC,0.00,Misterhouse,2013-03-15 14:40:00,
2013-03-15 07:45:00,63.9,32.0,30.78,West,281,3.0,5.0,11,0.00,RA,OVC,0.00,Misterhouse,2013-03-15 14:45:00,
2013-03-15 07:50:00,63.5,32.0,30.78,West,266,0.0,0.0,11,0.00,RA,OVC,0.00,Misterhouse,2013-03-15 14:50:00,
2013-03-15 07:55:00,63.3,32.0,30.78,West,277,2.0,4.0,11,0.00,RA,OVC,0.00,Misterhouse,2013-03-15 14:55:00,
2013-03-15 08:00:00,63.0,32.0,30.78,WNW,285,3.0,4.0,11,0.00,RA,OVC,0.00,Misterhouse,2013-03-15 15:00:00,
2013-03-15 08:10:00,62.2,32.0,30.78,WNW,291,5.0,5.0,11,0.00,RA,OVC,0.00,Misterhouse,2013-03-15 15:10:00,
2013-03-15 08:15:00,62.2,32.0,30.78,West,276,3.0,0.0,11,0.00,RA,OVC,0.00,Misterhouse,2013-03-15 15:15:00,
2013-03-15 08:20:00,62.1,32.0,30.78,West,273,0.0,0.0,11,0.00,RA,OVC,0.00,Misterhouse,2013-03-15 15:20:00,
2013-03-15 08:25:00,62.6,32.0,30.78,West,273,0.0,0.0,11,0.00,RA,OVC,0.00,Misterhouse,2013-03-15 15:25:00,
2013-03-15 08:30:00,63.5,32.0,30.78,West,278,4.0,4.0,11,0.00,RA,OVC,0.00,Misterhouse,2013-03-15 15:30:00,
2013-03-15 08:35:00,64.4,32.0,30.78,West,271,2.0,3.0,10,0.00,RA,OVC,0.00,Misterhouse,2013-03-15 15:35:00,
2013-03-15 08:40:00,65.5,32.0,30.78,WNW,292,4.0,5.0,10,0.00,RA,OVC,0.00,Misterhouse,2013-03-15 15:40:00,
2013-03-15 08:45:00,66.2,32.0,30.78,West,277,5.0,5.0,10,0.00,RA,OVC,0.00,Misterhouse,2013-03-15 15:45:00,
2013-03-15 08:50:00,66.6,32.0,30.78,WNW,282,4.0,4.0,10,0.00,RA,OVC,0.00,Misterhouse,2013-03-15 15:50:00,
2013-03-15 08:55:00,66.7,32.0,30.78,WNW,299,2.0,5.0,10,0.00,RA,OVC,0.00,Misterhouse,2013-03-15 15:55:00,
2013-03-15 09:00:00,66.6,32.0,30.78,WNW,296,4.0,5.0,10,0.00,RA,OVC,0.00,Misterhouse,2013-03-15 16:00:00,
2013-03-15 09:05:00,66.6,32.0,30.78,WNW,293,4.0,4.0,10,0.00,RA,OVC,0.00,Misterhouse,2013-03-15 16:05:00,
2013-03-15 09:10:00,67.1,32.0,30.81,WNW,288,3.0,5.0,10,0.00,RA,OVC,0.00,Misterhouse,2013-03-15 16:10:00,
2013-03-15 09:15:00,68.0,32.0,30.81,West,278,6.0,6.0,10,0.00,RA,OVC,0.00,Misterhouse,2013-03-15 16:15:00,
2013-03-15 09:20:00,68.5,32.0,30.81,WNW,286,7.0,8.0,10,0.00,RA,OVC,0.00,Misterhouse,2013-03-15 16:20:00,
2013-03-15 09:25:00,69.1,32.0,30.81,WSW,243,4.0,4.0,10,0.00,RA,OVC,0.00,Misterhouse,2013-03-15 16:25:00,
2013-03-15 09:30:00,69.6,32.0,30.81,SW,233,5.0,5.0,10,0.00,RA,OVC,0.00,Misterhouse,2013-03-15 16:30:00,
2013-03-15 09:35:00,70.2,32.0,30.81,SW,215,4.0,4.0,9,0.00,RA,OVC,0.00,Misterhouse,2013-03-15 16:35:00,
2013-03-15 09:40:00,70.7,32.0,30.81,SW,224,4.0,4.0,9,0.00,RA,OVC,0.00,Misterhouse,2013-03-15 16:40:00,
2013-03-15 09:45:00,71.1,32.0,30.81,West,281,5.0,5.0,9,0.00,RA,OVC,0.00,Misterhouse,2013-03-15 16:45:00,
2013-03-15 09:50:00,71.2,32.0,30.81,SSW,204,4.0,4.0,9,0.00,RA,OVC,0.00,Misterhouse,2013-03-15 16:50:00,
2013-03-15 09:55:00,71.6,32.0,30.81,SW,224,8.0,8.0,9,0.00,RA,OVC,0.00,Misterhouse,2013-03-15 16:55:00,
2013-03-15 10:00:00,72.0,32.0,30.81,WSW,249,4.0,4.0,9,0.00,RA,OVC,0.00,Misterhouse,2013-03-15 17:00:00,
2013-03-15 10:10:00,72.9,32.0,30.81,SSW,198,6.0,8.0,9,0.00,RA,OVC,0.00,Misterhouse,2013-03-15 17:10:00,
2013-03-15 10:15:00,72.9,32.0,30.81,SSW,207,5.0,5.0,9,0.00,RA,OVC,0.00,Misterhouse,2013-03-15 17:15:00,
2013-03-15 10:20:00,73.4,32.0,30.81,SW,224,4.0,4.0,8,0.00,RA,OVC,0.00,Misterhouse,2013-03-15 17:20:00,
2013-03-15 10:25:00,73.9,32.0,30.81,West,275,5.0,8.0,8,0.00,RA,OVC,0.00,Misterhouse,2013-03-15 17:25:00,
2013-03-15 10:30:00,73.9,32.0,30.81,SSW,213,6.0,8.0,8,0.00,RA,OVC,0.00,Misterhouse,2013-03-15 17:30:00,
2013-03-15 10:35:00,74.3,32.0,30.81,SSW,211,7.0,7.0,8,0.00,RA,OVC,0.00,Misterhouse,2013-03-15 17:35:00,
2013-03-15 10:40:00,74.5,32.0,30.81,WSW,252,4.0,4.0,8,0.00,RA,OVC,0.00,Misterhouse,2013-03-15 17:40:00,
2013-03-15 10:50:00,74.1,32.0,30.81,WSW,247,8.0,11.0,8,0.00,RA,OVC,0.00,Misterhouse,2013-03-15 17:50:00,
2013-03-15 10:55:00,74.7,32.0,30.81,South,191,6.0,6.0,8,0.00,RA,OVC,0.00,Misterhouse,2013-03-15 17:55:00,
2013-03-15 11:00:00,74.5,32.0,30.81,WSW,257,7.0,7.0,8,0.00,RA,OVC,0.00,Misterhouse,2013-03-15 18:00:00,
2013-03-15 11:10:00,75.0,32.0,30.81,SSE,162,0.0,6.0,8,0.00,RA,OVC,0.00,Misterhouse,2013-03-15 18:10:00,
2013-03-15 11:15:00,75.9,32.0,30.81,WSW,249,3.0,4.0,8,0.00,RA,OVC,0.00,Misterhouse,2013-03-15 18:15:00,
2013-03-15 11:20:00,76.1,32.0,30.81,South,183,3.0,0.0,8,0.00,RA,OVC,0.00,Misterhouse,2013-03-15 18:20:00,
2013-03-15 11:25:00,76.8,32.0,30.78,West,280,4.0,4.0,8,0.00,RA,OVC,0.00,Misterhouse,2013-03-15 18:25:00,
2013-03-15 11:30:00,76.8,32.0,30.78,SW,214,6.0,6.0,8,0.00,RA,OVC,0.00,Misterhouse,2013-03-15 18:30:00,
2013-03-15 11:35:00,77.2,32.0,30.78,WSW,258,5.0,6.0,8,0.00,RA,OVC,0.00,Misterhouse,2013-03-15 18:35:00,
2013-03-15 11:40:00,76.5,32.0,30.78,West,263,6.0,9.0,8,0.00,RA,OVC,0.00,Misterhouse,2013-03-15 18:40:00,
2013-03-15 11:45:00,75.9,32.0,30.78,SSE,162,6.0,8.0,8,0.00,RA,OVC,0.00,Misterhouse,2013-03-15 18:45:00,
2013-03-15 11:50:00,76.8,32.0,30.78,SE,136,4.0,4.0,8,0.00,RA,OVC,0.00,Misterhouse,2013-03-15 18:50:00,
2013-03-15 11:55:00,76.8,32.0,30.78,West,261,7.0,10.0,8,0.00,RA,OVC,0.00,Misterhouse,2013-03-15 18:55:00,
2013-03-15 12:00:00,76.5,32.0,30.78,West,263,5.0,8.0,8,0.00,RA,OVC,0.00,Misterhouse,2013-03-15 19:00:00,
2013-03-15 12:10:00,76.5,32.0,30.75,West,278,3.0,4.0,8,0.00,RA,OVC,0.00,Misterhouse,2013-03-15 19:10:00,
2013-03-15 12:15:00,78.1,32.0,30.75,SSW,203,6.0,6.0,8,0.00,RA,OVC,0.00,Misterhouse,2013-03-15 19:15:00,
2013-03-15 12:20:00,77.9,32.0,30.75,WSW,247,6.0,6.0,8,0.00,RA,OVC,0.00,Misterhouse,2013-03-15 19:20:00,
2013-03-15 12:25:00,77.5,32.0,30.78,WNW,286,4.0,4.0,8,0.00,RA,OVC,0.00,Misterhouse,2013-03-15 19:25:00,
2013-03-15 12:30:00,77.5,32.0,30.78,SW,233,6.0,6.0,8,0.00,RA,OVC,0.00,Misterhouse,2013-03-15 19:30:00,
2013-03-15 12:35:00,77.5,32.0,30.78,SW,230,4.0,10.0,8,0.00,RA,OVC,0.00,Misterhouse,2013-03-15 19:35:00,
2013-03-15 12:40:00,77.5,32.0,30.78,SW,224,9.0,9.0,8,0.00,RA,OVC,0.00,Misterhouse,2013-03-15 19:40:00,
2013-03-15 12:45:00,77.2,32.0,30.78,WSW,257,7.0,11.0,8,0.00,RA,OVC,0.00,Misterhouse,2013-03-15 19:45:00,
2013-03-15 12:50:00,77.2,32.0,30.78,SSW,203,8.0,10.0,8,0.00,RA,OVC,0.00,Misterhouse,2013-03-15 19:50:00,
2013-03-15 12:55:00,77.0,32.0,30.75,SSW,204,5.0,8.0,8,0.00,RA,OVC,0.00,Misterhouse,2013-03-15 19:55:00,
2013-03-15 13:00:00,77.5,32.0,30.75,WSW,244,8.0,8.0,8,0.00,RA,OVC,0.00,Misterhouse,2013-03-15 20:00:00,
2013-03-15 13:10:00,77.7,32.0,30.75,SSW,212,8.0,9.0,8,0.00,RA,OVC,0.00,Misterhouse,2013-03-15 20:10:00,
2013-03-15 13:15:00,77.5,32.0,30.75,WSW,256,8.0,8.0,8,0.00,RA,OVC,0.00,Misterhouse,2013-03-15 20:15:00,
2013-03-15 13:20:00,77.2,32.0,30.75,South,189,10.0,13.0,8,0.00,RA,OVC,0.00,Misterhouse,2013-03-15 20:20:00,
2013-03-15 13:25:00,77.0,32.0,30.75,SSW,203,10.0,10.0,8,0.00,RA,OVC,0.00,Misterhouse,2013-03-15 20:25:00,
2013-03-15 13:30:00,77.5,32.0,30.75,SSE,148,9.0,11.0,8,0.00,RA,OVC,0.00,Misterhouse,2013-03-15 20:30:00,
2013-03-15 13:35:00,77.7,32.0,30.75,SW,230,11.0,13.0,8,0.00,RA,OVC,0.00,Misterhouse,2013-03-15 20:35:00,
2013-03-15 13:40:00,77.9,32.0,30.75,South,183,8.0,10.0,8,0.00,RA,OVC,0.00,Misterhouse,2013-03-15 20:40:00,
2013-03-15 13:45:00,77.5,32.0,30.75,SSW,203,10.0,10.0,8,0.00,RA,OVC,0.00,Misterhouse,2013-03-15 20:45:00,
2013-03-15 13:50:00,77.7,32.0,30.75,WSW,251,11.0,13.0,8,0.00,RA,OVC,0.00,Misterhouse,2013-03-15 20:50:00,
2013-03-15 13:55:00,77.5,32.0,30.75,SSW,205,11.0,13.0,8,0.00,RA,OVC,0.00,Misterhouse,2013-03-15 20:55:00,
2013-03-15 14:00:00,77.4,32.0,30.75,West,265,11.0,11.0,8,0.00,RA,OVC,0.00,Misterhouse,2013-03-15 21:00:00,
2013-03-15 14:10:00,77.2,32.0,30.72,South,188,11.0,15.0,8,0.00,RA,OVC,0.00,Misterhouse,2013-03-15 21:10:00,
2013-03-15 14:15:00,77.2,32.0,30.72,West,264,11.0,11.0,8,0.00,RA,OVC,0.00,Misterhouse,2013-03-15 21:15:00,
2013-03-15 14:20:00,76.8,32.0,30.72,South,186,11.0,11.0,8,0.00,RA,OVC,0.00,Misterhouse,2013-03-15 21:20:00,
2013-03-15 14:25:00,77.0,32.0,30.72,SW,229,11.0,15.0,8,0.00,RA,OVC,0.00,Misterhouse,2013-03-15 21:25:00,
2013-03-15 14:30:00,76.5,32.0,30.72,WSW,252,12.0,12.0,8,0.00,RA,OVC,0.00,Misterhouse,2013-03-15 21:30:00,
2013-03-15 14:35:00,76.6,32.0,30.72,WSW,252,12.0,12.0,8,0.00,RA,OVC,0.00,Misterhouse,2013-03-15 21:35:00,
2013-03-15 14:40:00,76.5,32.0,30.72,SE,133,12.0,13.0,8,0.00,RA,OVC,0.00,Misterhouse,2013-03-15 21:40:00,
2013-03-15 14:45:00,76.5,32.0,30.72,SSW,199,7.0,7.0,8,0.00,RA,OVC,0.00,Misterhouse,2013-03-15 21:45:00,
2013-03-15 14:50:00,76.6,32.0,30.72,SW,214,10.0,10.0,8,0.00,RA,OVC,0.00,Misterhouse,2013-03-15 21:50:00,
2013-03-15 14:55:00,77.0,32.0,30.72,South,173,7.0,8.0,8,0.00,RA,OVC,0.00,Misterhouse,2013-03-15 21:55:00,
2013-03-15 15:00:00,77.4,32.0,30.72,SSE,160,11.0,12.0,8,0.00,RA,OVC,0.00,Misterhouse,2013-03-15 22:00:00,
2013-03-15 15:10:00,76.5,32.0,30.72,SSW,210,12.0,12.0,8,0.00,RA,OVC,0.00,Misterhouse,2013-03-15 22:10:00,
2013-03-15 15:15:00,76.3,32.0,30.72,SSW,201,10.0,11.0,8,0.00,RA,OVC,0.00,Misterhouse,2013-03-15 22:15:00,
2013-03-15 15:20:00,75.7,32.0,30.72,SW,231,10.0,17.0,8,0.00,RA,OVC,0.00,Misterhouse,2013-03-15 22:20:00,
2013-03-15 15:25:00,76.5,32.0,30.72,SW,231,8.0,8.0,8,0.00,RA,OVC,0.00,Misterhouse,2013-03-15 22:25:00,
2013-03-15 15:30:00,76.3,32.0,30.72,South,191,13.0,13.0,8,0.00,RA,OVC,0.00,Misterhouse,2013-03-15 22:30:00,
2013-03-15 15:35:00,75.9,32.0,30.72,South,190,13.0,13.0,8,0.00,RA,OVC,0.00,Misterhouse,2013-03-15 22:35:00,
2013-03-15 15:40:00,75.9,32.0,30.72,South,187,11.0,11.0,8,0.00,RA,OVC,0.00,Misterhouse,2013-03-15 22:40:00,
2013-03-15 15:45:00,75.4,32.0,30.72,South,179,14.0,15.0,8,0.00,RA,OVC,0.00,Misterhouse,2013-03-15 22:45:00,
2013-03-15 15:50:00,75.0,32.0,30.72,South,170,11.0,15.0,8,0.00,RA,OVC,0.00,Misterhouse,2013-03-15 22:50:00,
2013-03-15 15:55:00,75.0,32.0,30.72,South,189,14.0,14.0,8,0.00,RA,OVC,0.00,Misterhouse,2013-03-15 22:55:00,
2013-03-15 16:00:00,75.2,32.0,30.72,SSW,195,10.0,14.0,8,0.00,RA,OVC,0.00,Misterhouse,2013-03-15 23:00:00,
2013-03-15 16:10:00,74.5,32.0,30.72,SSW,193,11.0,15.0,8,0.00,RA,OVC,0.00,Misterhouse,2013-03-15 23:10:00,
2013-03-15 16:15:00,74.7,32.0,30.72,SSW,205,12.0,13.0,8,0.00,RA,OVC,0.00,Misterhouse,2013-03-15 23:15:00,
2013-03-15 16:20:00,74.7,32.0,30.72,SSW,207,12.0,13.0,8,0.00,RA,OVC,0.00,Misterhouse,2013-03-15 23:20:00,
2013-03-15 16:30:00,74.3,32.0,30.72,South,178,15.0,15.0,8,0.00,RA,OVC,0.00,Misterhouse,2013-03-15 23:30:00,
2013-03-15 16:35:00,73.9,32.0,30.72,South,178,17.0,17.0,8,0.00,RA,OVC,0.00,Misterhouse,2013-03-15 23:35:00,
2013-03-15 16:40:00,74.3,32.0,30.72,SSE,163,8.0,10.0,8,0.00,RA,OVC,0.00,Misterhouse,2013-03-15 23:40:00,
2013-03-15 16:45:00,73.6,32.0,30.72,SSW,200,15.0,15.0,8,0.00,RA,OVC,0.00,Misterhouse,2013-03-15 23:45:00,
2013-03-15 16:50:00,73.6,32.0,30.72,South,184,13.0,13.0,8,0.00,RA,OVC,0.00,Misterhouse,2013-03-15 23:50:00,
2013-03-15 16:55:00,73.2,32.0,30.72,South,174,14.0,15.0,9,0.00,RA,OVC,0.00,Misterhouse,2013-03-15 23:55:00,
2013-03-15 17:00:00,72.7,32.0,30.72,South,170,11.0,14.0,9,0.00,RA,OVC,0.00,Misterhouse,2013-03-16 00:00:00,
2013-03-15 17:05:00,72.3,32.0,30.72,SSE,159,15.0,15.0,9,0.00,RA,OVC,0.00,Misterhouse,2013-03-16 00:05:00,
2013-03-15 17:10:00,72.3,32.0,30.72,SSW,212,14.0,15.0,9,0.00,RA,OVC,0.00,Misterhouse,2013-03-16 00:10:00,
2013-03-15 17:15:00,71.8,32.0,30.72,SSW,208,14.0,14.0,9,0.00,RA,OVC,0.00,Misterhouse,2013-03-16 00:15:00,
2013-03-15 17:20:00,71.8,32.0,30.72,South,190,14.0,14.0,9,0.00,RA,OVC,0.00,Misterhouse,2013-03-16 00:20:00,
2013-03-15 17:25:00,71.8,32.0,30.69,SSW,198,12.0,17.0,9,0.00,RA,OVC,0.00,Misterhouse,2013-03-16 00:25:00,
2013-03-15 17:30:00,72.0,32.0,30.69,South,187,10.0,15.0,9,0.00,RA,OVC,0.00,Misterhouse,2013-03-16 00:30:00,
2013-03-15 17:35:00,71.6,32.0,30.69,WSW,254,8.0,8.0,9,0.00,RA,OVC,0.00,Misterhouse,2013-03-16 00:35:00,
2013-03-15 17:40:00,71.2,32.0,30.72,South,175,10.0,10.0,9,0.00,RA,OVC,0.00,Misterhouse,2013-03-16 00:40:00,
2013-03-15 17:45:00,71.1,32.0,30.72,SSW,194,11.0,11.0,9,0.00,RA,OVC,0.00,Misterhouse,2013-03-16 00:45:00,
2013-03-15 17:50:00,70.9,32.0,30.72,SSW,204,10.0,11.0,9,0.00,RA,OVC,0.00,Misterhouse,2013-03-16 00:50:00,
2013-03-15 17:55:00,70.5,32.0,30.72,SW,214,10.0,10.0,9,0.00,RA,OVC,0.00,Misterhouse,2013-03-16 00:55:00,
2013-03-15 18:00:00,70.0,32.0,30.72,SW,217,8.0,10.0,9,0.00,RA,OVC,0.00,Misterhouse,2013-03-16 01:00:00,
2013-03-15 18:10:00,69.4,32.0,30.72,SSE,149,8.0,9.0,10,0.00,RA,OVC,0.00,Misterhouse,2013-03-16 01:10:00,
2013-03-15 18:15:00,69.1,32.0,30.72,West,260,5.0,5.0,10,0.00,RA,OVC,0.00,Misterhouse,2013-03-16 01:15:00,
2013-03-15 18:20:00,68.5,32.0,30.72,SSW,203,7.0,10.0,10,0.00,RA,OVC,0.00,Misterhouse,2013-03-16 01:20:00,
2013-03-15 18:25:00,68.2,32.0,30.72,WNW,284,7.0,7.0,10,0.00,RA,OVC,0.00,Misterhouse,2013-03-16 01:25:00,
2013-03-15 18:30:00,67.6,32.0,30.72,WSW,258,6.0,6.0,10,0.00,RA,OVC,0.00,Misterhouse,2013-03-16 01:30:00,
2013-03-15 18:35:00,67.1,32.0,30.72,WSW,254,5.0,9.0,10,0.00,RA,OVC,0.00,Misterhouse,2013-03-16 01:35:00,
2013-03-15 18:40:00,66.9,32.0,30.72,West,272,10.0,10.0,10,0.00,RA,OVC,0.00,Misterhouse,2013-03-16 01:40:00,
2013-03-15 18:45:00,66.9,32.0,30.72,SW,214,8.0,8.0,10,0.00,RA,OVC,0.00,Misterhouse,2013-03-16 01:45:00,
2013-03-15 18:50:00,66.6,32.0,30.72,WSW,244,6.0,6.0,10,0.00,RA,OVC,0.00,Misterhouse,2013-03-16 01:50:00,
2013-03-15 18:55:00,66.2,32.0,30.72,SSW,197,4.0,4.0,10,0.00,RA,OVC,0.00,Misterhouse,2013-03-16 01:55:00,
2013-03-15 19:00:00,66.0,32.0,30.72,SSW,196,4.0,5.0,10,0.00,RA,OVC,0.00,Misterhouse,2013-03-16 02:00:00,
2013-03-15 19:10:00,65.7,32.0,30.72,WSW,250,8.0,8.0,10,0.00,RA,OVC,0.00,Misterhouse,2013-03-16 02:10:00,
2013-03-15 19:15:00,65.7,32.0,30.72,West,275,7.0,9.0,10,0.00,RA,OVC,0.00,Misterhouse,2013-03-16 02:15:00,
2013-03-15 19:20:00,65.5,32.0,30.72,South,181,8.0,8.0,10,0.00,RA,OVC,0.00,Misterhouse,2013-03-16 02:20:00,
2013-03-15 19:25:00,65.3,32.0,30.72,South,174,8.0,8.0,10,0.00,RA,OVC,0.00,Misterhouse,2013-03-16 02:25:00,
2013-03-15 19:30:00,65.1,32.0,30.72,South,189,8.0,8.0,10,0.00,RA,OVC,0.00,Misterhouse,2013-03-16 02:30:00,
2013-03-15 19:35:00,64.8,32.0,30.72,SSW,192,9.0,9.0,10,0.00,RA,OVC,0.00,Misterhouse,2013-03-16 02:35:00,
2013-03-15 19:40:00,64.9,32.0,30.75,South,183,11.0,11.0,10,0.00,BC,SCT,0.00,Misterhouse,2013-03-16 02:40:00,
2013-03-15 19:45:00,64.8,32.0,30.75,SSW,193,10.0,10.0,10,0.00,BC,SCT,0.00,Misterhouse,2013-03-16 02:45:00,
2013-03-15 19:50:00,64.8,32.0,30.75,South,176,9.0,9.0,10,0.00,BC,SCT,0.00,Misterhouse,2013-03-16 02:50:00,
2013-03-15 19:55:00,64.6,32.0,30.75,South,190,8.0,8.0,10,0.00,BC,SCT,0.00,Misterhouse,2013-03-16 02:55:00,
2013-03-15 20:00:00,64.4,32.0,30.75,South,187,7.0,8.0,10,0.00,BC,SCT,0.00,Misterhouse,2013-03-16 03:00:00,
2013-03-15 20:10:00,64.4,32.0,30.75,South,187,9.0,9.0,10,0.00,BC,SCT,0.00,Misterhouse,2013-03-16 03:10:00,
2013-03-15 20:15:00,64.8,32.0,30.75,SW,219,7.0,7.0,10,0.00,BC,SCT,0.00,Misterhouse,2013-03-16 03:15:00,
2013-03-15 20:20:00,64.9,32.0,30.75,WSW,248,7.0,8.0,10,0.00,BC,SCT,0.00,Misterhouse,2013-03-16 03:20:00,
2013-03-15 20:25:00,66.2,32.0,30.75,WSW,247,9.0,11.0,10,0.00,BC,SCT,0.00,Misterhouse,2013-03-16 03:25:00,
2013-03-15 20:30:00,66.4,32.0,30.75,WSW,239,11.0,13.0,10,0.00,BC,SCT,0.00,Misterhouse,2013-03-16 03:30:00,
2013-03-15 20:35:00,66.4,32.0,30.75,West,265,11.0,11.0,10,0.00,BC,SCT,0.00,Misterhouse,2013-03-16 03:35:00,
2013-03-15 20:40:00,66.4,32.0,30.75,West,270,11.0,15.0,10,0.00,BC,SCT,0.00,Misterhouse,2013-03-16 03:40:00,
2013-03-15 20:45:00,66.4,32.0,30.75,West,273,12.0,12.0,10,0.00,BC,SCT,0.00,Misterhouse,2013-03-16 03:45:00,
2013-03-15 20:50:00,66.2,32.0,30.75,WSW,243,9.0,10.0,10,0.00,BC,SCT,0.00,Misterhouse,2013-03-16 03:50:00,
2013-03-15 20:55:00,65.8,32.0,30.75,SW,224,11.0,12.0,10,0.00,BC,SCT,0.00,Misterhouse,2013-03-16 03:55:00,
2013-03-15 21:00:00,66.2,32.0,30.75,WSW,250,14.0,14.0,10,0.00,BC,SCT,0.00,Misterhouse,2013-03-16 04:00:00,
2013-03-15 21:05:00,66.0,32.0,30.75,SW,232,12.0,14.0,10,0.00,BC,SCT,0.00,Misterhouse,2013-03-16 04:05:00,
2013-03-15 21:10:00,66.2,32.0,30.75,WSW,256,12.0,13.0,10,0.00,BC,SCT,0.00,Misterhouse,2013-03-16 04:10:00,
2013-03-15 21:15:00,65.8,32.0,30.75,WSW,257,10.0,11.0,10,0.00,BC,SCT,0.00,Misterhouse,2013-03-16 04:15:00,
2013-03-15 21:20:00,65.5,32.0,30.75,WSW,255,7.0,11.0,10,0.00,BC,SCT,0.00,Misterhouse,2013-03-16 04:20:00,
2013-03-15 21:25:00,65.1,32.0,30.75,WSW,250,13.0,13.0,10,0.00,BC,SCT,0.00,Misterhouse,2013-03-16 04:25:00,
2013-03-15 21:30:00,64.8,32.0,30.75,West,270,17.0,17.0,10,0.00,BC,SCT,0.00,Misterhouse,2013-03-16 04:30:00,
2013-03-15 21:35:00,64.8,32.0,30.75,WSW,246,15.0,15.0,10,0.00,BC,SCT,0.00,Misterhouse,2013-03-16 04:35:00,
2013-03-15 21:40:00,64.4,32.0,30.75,WSW,246,19.0,20.0,10,0.00,BC,SCT,0.00,Misterhouse,2013-03-16 04:40:00,
2013-03-15 21:45:00,63.9,32.0,30.75,WSW,253,12.0,12.0,11,0.00,BC,SCT,0.00,Misterhouse,2013-03-16 04:45:00,
2013-03-15 21:50:00,63.5,32.0,30.75,WSW,242,15.0,18.0,11,0.00,BC,SCT,0.00,Misterhouse,2013-03-16 04:50:00,
2013-03-15 21:55:00,63.1,32.0,30.75,West,275,13.0,18.0,11,0.00,BC,SCT,0.00,Misterhouse,2013-03-16 04:55:00,
2013-03-15 22:00:00,62.6,32.0,30.75,WSW,246,13.0,13.0,11,0.00,BC,SCT,0.00,Misterhouse,2013-03-16 05:00:00,
2013-03-15 22:10:00,61.9,32.0,30.75,WSW,254,8.0,13.0,11,0.00,BC,SCT,0.00,Misterhouse,2013-03-16 05:10:00,
2013-03-15 22:15:00,61.9,32.0,30.75,West,263,11.0,11.0,11,0.00,BC,SCT,0.00,Misterhouse,2013-03-16 05:15:00,
2013-03-15 22:20:00,61.9,32.0,30.75,WSW,249,11.0,12.0,11,0.00,BC,SCT,0.00,Misterhouse,2013-03-16 05:20:00,
2013-03-15 22:25:00,61.9,32.0,30.75,SSW,208,10.0,10.0,11,0.00,BC,SCT,0.00,Misterhouse,2013-03-16 05:25:00,
2013-03-15 22:30:00,61.7,32.0,30.75,WSW,244,11.0,13.0,11,0.00,BC,SCT,0.00,Misterhouse,2013-03-16 05:30:00,
2013-03-15 22:35:00,61.7,32.0,30.75,WSW,238,13.0,13.0,11,0.00,BC,SCT,0.00,Misterhouse,2013-03-16 05:35:00,
2013-03-15 22:40:00,61.5,32.0,30.75,WSW,251,15.0,15.0,11,0.00,BC,SCT,0.00,Misterhouse,2013-03-16 05:40:00,
2013-03-15 22:45:00,61.5,32.0,30.75,WSW,258,16.0,20.0,11,0.00,BC,SCT,0.00,Misterhouse,2013-03-16 05:45:00,
2013-03-15 22:50:00,61.5,32.0,30.75,WSW,253,16.0,17.0,11,0.00,BC,SCT,0.00,Misterhouse,2013-03-16 05:50:00,
2013-03-15 22:55:00,61.3,32.0,30.75,West,278,11.0,15.0,11,0.00,BC,SCT,0.00,Misterhouse,2013-03-16 05:55:00,
2013-03-15 23:00:00,61.3,32.0,30.75,WSW,241,10.0,10.0,11,0.00,BC,SCT,0.00,Misterhouse,2013-03-16 06:00:00,
2013-03-15 23:10:00,61.0,32.0,30.75,West,265,8.0,11.0,11,0.00,BC,SCT,0.00,Misterhouse,2013-03-16 06:10:00,
2013-03-15 23:15:00,60.8,32.0,30.75,WSW,242,11.0,11.0,11,0.00,BC,SCT,0.00,Misterhouse,2013-03-16 06:15:00,
2013-03-15 23:20:00,61.0,32.0,30.75,WSW,250,9.0,9.0,11,0.00,BC,SCT,0.00,Misterhouse,2013-03-16 06:20:00,
2013-03-15 23:25:00,61.3,32.0,30.75,WSW,247,10.0,10.0,11,0.00,BC,SCT,0.00,Misterhouse,2013-03-16 06:25:00,
2013-03-15 23:30:00,61.7,32.0,30.75,WNW,287,7.0,7.0,11,0.00,BC,SCT,0.00,Misterhouse,2013-03-16 06:30:00,
2013-03-15 23:35:00,61.7,32.0,30.75,SW,225,7.0,9.0,11,0.00,BC,SCT,0.00,Misterhouse,2013-03-16 06:35:00,
2013-03-15 23:40:00,61.9,32.0,30.72,West,278,9.0,16.0,11,0.00,BC,SCT,0.00,Misterhouse,2013-03-16 06:40:00,
2013-03-15 23:45:00,62.6,32.0,30.72,WSW,247,13.0,13.0,11,0.00,BC,SCT,0.00,Misterhouse,2013-03-16 06:45:00,
2013-03-15 23:50:00,62.6,32.0,30.72,WSW,255,11.0,15.0,11,0.00,BC,SCT,0.00,Misterhouse,2013-03-16 06:50:00,
2013-03-15 23:55:00,62.8,32.0,30.72,WNW,287,7.0,8.0,11,0.00,BC,SCT,0.00,Misterhouse,2013-03-16 06:55:00,